sensor_id;sensor_type;location;lat;lon;timestamp;P1;durP1;ratioP1;P2;durP2;ratioP2
77384;SDS011;66443;49.122;8.346;2023-05-07T00:01:33;3.40;;;3.10;;
77384;SDS011;66443;49.122;8.346;2023-05-07T00:03:59;3.50;;;3.20;;
77384;SDS011;66443;49.122;8.346;2023-05-07T00:06:24;3.53;;;3.30;;
77384;SDS011;66443;49.122;8.346;2023-05-07T00:08:51;3.47;;;3.27;;
77384;SDS011;66443;49.122;8.346;2023-05-07T00:11:16;4.73;;;3.80;;
77384;SDS011;66443;49.122;8.346;2023-05-07T00:13:41;4.10;;;3.73;;
77384;SDS011;66443;49.122;8.346;2023-05-07T00:16:06;4.90;;;4.10;;
77384;SDS011;66443;49.122;8.346;2023-05-07T00:18:31;4.80;;;3.93;;
77384;SDS011;66443;49.122;8.346;2023-05-07T00:20:57;4.07;;;3.67;;
77384;SDS011;66443;49.122;8.346;2023-05-07T00:23:22;3.73;;;3.43;;
77384;SDS011;66443;49.122;8.346;2023-05-07T00:25:48;4.07;;;3.77;;
77384;SDS011;66443;49.122;8.346;2023-05-07T00:28:13;8.73;;;4.53;;
77384;SDS011;66443;49.122;8.346;2023-05-07T00:30:38;4.63;;;4.03;;
77384;SDS011;66443;49.122;8.346;2023-05-07T00:33:03;3.80;;;3.50;;
77384;SDS011;66443;49.122;8.346;2023-05-07T00:35:29;3.90;;;3.60;;
77384;SDS011;66443;49.122;8.346;2023-05-07T00:37:54;4.17;;;3.87;;
77384;SDS011;66443;49.122;8.346;2023-05-07T00:40:20;4.83;;;4.30;;
77384;SDS011;66443;49.122;8.346;2023-05-07T00:42:45;4.13;;;3.83;;
77384;SDS011;66443;49.122;8.346;2023-05-07T00:45:11;4.33;;;3.93;;
77384;SDS011;66443;49.122;8.346;2023-05-07T00:47:37;5.53;;;4.43;;
77384;SDS011;66443;49.122;8.346;2023-05-07T00:50:02;4.53;;;4.13;;
77384;SDS011;66443;49.122;8.346;2023-05-07T00:52:28;5.00;;;4.60;;
77384;SDS011;66443;49.122;8.346;2023-05-07T00:54:54;4.50;;;4.10;;
77384;SDS011;66443;49.122;8.346;2023-05-07T00:57:20;4.97;;;4.57;;
77384;SDS011;66443;49.122;8.346;2023-05-07T00:59:46;5.57;;;4.20;;
77384;SDS011;66443;49.122;8.346;2023-05-07T01:02:11;6.97;;;4.63;;
77384;SDS011;66443;49.122;8.346;2023-05-07T01:04:37;6.57;;;4.63;;
77384;SDS011;66443;49.122;8.346;2023-05-07T01:07:02;4.40;;;4.00;;
77384;SDS011;66443;49.122;8.346;2023-05-07T01:09:28;4.30;;;3.90;;
77384;SDS011;66443;49.122;8.346;2023-05-07T01:11:53;7.90;;;3.53;;
77384;SDS011;66443;49.122;8.346;2023-05-07T01:14:19;4.17;;;3.87;;
77384;SDS011;66443;49.122;8.346;2023-05-07T01:16:45;4.37;;;3.97;;
77384;SDS011;66443;49.122;8.346;2023-05-07T01:19:11;4.40;;;4.00;;
77384;SDS011;66443;49.122;8.346;2023-05-07T01:21:38;4.23;;;3.83;;
77384;SDS011;66443;49.122;8.346;2023-05-07T01:24:08;5.10;;;4.70;;
77384;SDS011;66443;49.122;8.346;2023-05-07T01:26:33;4.40;;;4.10;;
77384;SDS011;66443;49.122;8.346;2023-05-07T01:28:58;4.07;;;3.70;;
77384;SDS011;66443;49.122;8.346;2023-05-07T01:31:23;4.00;;;3.70;;
77384;SDS011;66443;49.122;8.346;2023-05-07T01:33:49;3.97;;;3.67;;
77384;SDS011;66443;49.122;8.346;2023-05-07T01:36:15;4.23;;;3.83;;
77384;SDS011;66443;49.122;8.346;2023-05-07T01:38:42;3.77;;;3.47;;
77384;SDS011;66443;49.122;8.346;2023-05-07T01:41:08;4.40;;;3.90;;
77384;SDS011;66443;49.122;8.346;2023-05-07T01:43:34;4.40;;;4.00;;
77384;SDS011;66443;49.122;8.346;2023-05-07T01:45:59;4.90;;;4.27;;
77384;SDS011;66443;49.122;8.346;2023-05-07T01:48:25;4.13;;;3.73;;
77384;SDS011;66443;49.122;8.346;2023-05-07T01:50:50;3.80;;;3.50;;
77384;SDS011;66443;49.122;8.346;2023-05-07T01:53:16;4.07;;;3.63;;
77384;SDS011;66443;49.122;8.346;2023-05-07T01:55:41;4.47;;;4.07;;
77384;SDS011;66443;49.122;8.346;2023-05-07T01:58:06;4.13;;;3.83;;
77384;SDS011;66443;49.122;8.346;2023-05-07T02:00:32;4.37;;;4.00;;
77384;SDS011;66443;49.122;8.346;2023-05-07T02:02:57;3.23;;;3.00;;
77384;SDS011;66443;49.122;8.346;2023-05-07T02:05:22;3.90;;;3.50;;
77384;SDS011;66443;49.122;8.346;2023-05-07T02:07:48;10.13;;;3.67;;
77384;SDS011;66443;49.122;8.346;2023-05-07T02:10:13;3.27;;;3.07;;
77384;SDS011;66443;49.122;8.346;2023-05-07T02:12:38;3.13;;;2.87;;
77384;SDS011;66443;49.122;8.346;2023-05-07T02:15:03;3.17;;;2.93;;
77384;SDS011;66443;49.122;8.346;2023-05-07T02:17:28;3.10;;;2.90;;
77384;SDS011;66443;49.122;8.346;2023-05-07T02:19:56;4.37;;;3.23;;
77384;SDS011;66443;49.122;8.346;2023-05-07T02:22:21;3.30;;;3.00;;
77384;SDS011;66443;49.122;8.346;2023-05-07T02:24:47;3.77;;;3.53;;
77384;SDS011;66443;49.122;8.346;2023-05-07T02:27:12;4.60;;;3.53;;
77384;SDS011;66443;49.122;8.346;2023-05-07T02:29:37;4.20;;;3.90;;
77384;SDS011;66443;49.122;8.346;2023-05-07T02:32:02;3.60;;;3.30;;
77384;SDS011;66443;49.122;8.346;2023-05-07T02:34:27;4.43;;;3.63;;
77384;SDS011;66443;49.122;8.346;2023-05-07T02:36:53;3.57;;;3.27;;
77384;SDS011;66443;49.122;8.346;2023-05-07T02:39:18;4.20;;;3.57;;
77384;SDS011;66443;49.122;8.346;2023-05-07T02:41:43;5.83;;;3.83;;
77384;SDS011;66443;49.122;8.346;2023-05-07T02:44:08;4.13;;;3.83;;
77384;SDS011;66443;49.122;8.346;2023-05-07T02:46:34;3.87;;;3.57;;
77384;SDS011;66443;49.122;8.346;2023-05-07T02:48:59;4.80;;;4.40;;
77384;SDS011;66443;49.122;8.346;2023-05-07T02:51:25;4.33;;;4.03;;
77384;SDS011;66443;49.122;8.346;2023-05-07T02:53:51;5.03;;;4.57;;
77384;SDS011;66443;49.122;8.346;2023-05-07T02:56:16;7.20;;;4.67;;
77384;SDS011;66443;49.122;8.346;2023-05-07T02:58:41;5.27;;;4.87;;
77384;SDS011;66443;49.122;8.346;2023-05-07T03:03:37;5.27;;;4.87;;
77384;SDS011;66443;49.122;8.346;2023-05-07T03:06:02;5.80;;;5.00;;
77384;SDS011;66443;49.122;8.346;2023-05-07T03:08:27;5.63;;;5.23;;
77384;SDS011;66443;49.122;8.346;2023-05-07T03:10:52;5.27;;;4.80;;
77384;SDS011;66443;49.122;8.346;2023-05-07T03:13:18;5.37;;;4.97;;
77384;SDS011;66443;49.122;8.346;2023-05-07T03:15:43;5.47;;;4.97;;
77384;SDS011;66443;49.122;8.346;2023-05-07T03:18:08;6.73;;;6.20;;
77384;SDS011;66443;49.122;8.346;2023-05-07T03:20:33;6.40;;;5.80;;
77384;SDS011;66443;49.122;8.346;2023-05-07T03:22:58;6.57;;;5.97;;
77384;SDS011;66443;49.122;8.346;2023-05-07T03:25:24;6.67;;;5.77;;
77384;SDS011;66443;49.122;8.346;2023-05-07T03:27:49;6.97;;;6.40;;
77384;SDS011;66443;49.122;8.346;2023-05-07T03:30:14;6.60;;;6.07;;
77384;SDS011;66443;49.122;8.346;2023-05-07T03:32:39;6.53;;;6.03;;
77384;SDS011;66443;49.122;8.346;2023-05-07T03:35:05;7.10;;;6.57;;
77384;SDS011;66443;49.122;8.346;2023-05-07T03:37:30;7.60;;;7.00;;
77384;SDS011;66443;49.122;8.346;2023-05-07T03:39:55;7.37;;;6.57;;
77384;SDS011;66443;49.122;8.346;2023-05-07T03:42:20;6.50;;;6.00;;
77384;SDS011;66443;49.122;8.346;2023-05-07T03:44:46;7.67;;;7.00;;
77384;SDS011;66443;49.122;8.346;2023-05-07T03:47:11;7.60;;;6.90;;
77384;SDS011;66443;49.122;8.346;2023-05-07T03:49:38;7.87;;;7.10;;
77384;SDS011;66443;49.122;8.346;2023-05-07T03:52:03;7.30;;;6.70;;
77384;SDS011;66443;49.122;8.346;2023-05-07T03:54:28;8.07;;;7.47;;
77384;SDS011;66443;49.122;8.346;2023-05-07T03:56:53;7.33;;;6.80;;
77384;SDS011;66443;49.122;8.346;2023-05-07T03:59:18;7.57;;;7.07;;
77384;SDS011;66443;49.122;8.346;2023-05-07T04:01:44;8.13;;;7.40;;
77384;SDS011;66443;49.122;8.346;2023-05-07T04:04:09;8.07;;;7.23;;
77384;SDS011;66443;49.122;8.346;2023-05-07T04:06:34;8.27;;;7.43;;
77384;SDS011;66443;49.122;8.346;2023-05-07T04:09:00;8.17;;;7.53;;
77384;SDS011;66443;49.122;8.346;2023-05-07T04:11:25;7.60;;;6.90;;
77384;SDS011;66443;49.122;8.346;2023-05-07T04:13:50;7.57;;;6.97;;
77384;SDS011;66443;49.122;8.346;2023-05-07T04:16:15;7.40;;;6.80;;
77384;SDS011;66443;49.122;8.346;2023-05-07T04:18:41;8.13;;;7.43;;
77384;SDS011;66443;49.122;8.346;2023-05-07T04:21:13;7.57;;;6.97;;
77384;SDS011;66443;49.122;8.346;2023-05-07T04:23:38;7.93;;;7.37;;
77384;SDS011;66443;49.122;8.346;2023-05-07T04:26:04;7.83;;;7.13;;
77384;SDS011;66443;49.122;8.346;2023-05-07T04:28:29;7.80;;;7.20;;
77384;SDS011;66443;49.122;8.346;2023-05-07T04:30:54;8.30;;;7.50;;
77384;SDS011;66443;49.122;8.346;2023-05-07T04:33:19;8.33;;;7.73;;
77384;SDS011;66443;49.122;8.346;2023-05-07T04:35:45;7.73;;;7.03;;
77384;SDS011;66443;49.122;8.346;2023-05-07T04:38:11;8.00;;;7.30;;
77384;SDS011;66443;49.122;8.346;2023-05-07T04:40:36;7.57;;;6.97;;
77384;SDS011;66443;49.122;8.346;2023-05-07T04:43:01;7.00;;;6.30;;
77384;SDS011;66443;49.122;8.346;2023-05-07T04:45:27;8.17;;;7.10;;
77384;SDS011;66443;49.122;8.346;2023-05-07T04:47:52;7.67;;;6.87;;
77384;SDS011;66443;49.122;8.346;2023-05-07T04:50:17;7.43;;;6.67;;
77384;SDS011;66443;49.122;8.346;2023-05-07T04:52:44;8.20;;;6.70;;
77384;SDS011;66443;49.122;8.346;2023-05-07T04:55:10;7.33;;;6.73;;
77384;SDS011;66443;49.122;8.346;2023-05-07T04:57:35;7.07;;;6.40;;
77384;SDS011;66443;49.122;8.346;2023-05-07T05:00:00;8.17;;;7.37;;
77384;SDS011;66443;49.122;8.346;2023-05-07T05:02:25;6.70;;;6.00;;
77384;SDS011;66443;49.122;8.346;2023-05-07T05:04:50;7.47;;;6.20;;
77384;SDS011;66443;49.122;8.346;2023-05-07T05:07:16;6.30;;;5.80;;
77384;SDS011;66443;49.122;8.346;2023-05-07T05:09:41;6.20;;;5.57;;
77384;SDS011;66443;49.122;8.346;2023-05-07T05:12:06;5.60;;;5.10;;
77384;SDS011;66443;49.122;8.346;2023-05-07T05:14:32;5.07;;;4.67;;
77384;SDS011;66443;49.122;8.346;2023-05-07T05:16:57;4.57;;;4.27;;
77384;SDS011;66443;49.122;8.346;2023-05-07T05:19:22;4.63;;;4.20;;
77384;SDS011;66443;49.122;8.346;2023-05-07T05:21:47;3.93;;;3.53;;
77384;SDS011;66443;49.122;8.346;2023-05-07T05:24:13;4.47;;;4.07;;
77384;SDS011;66443;49.122;8.346;2023-05-07T05:26:38;3.70;;;2.93;;
77384;SDS011;66443;49.122;8.346;2023-05-07T05:29:03;3.03;;;2.83;;
77384;SDS011;66443;49.122;8.346;2023-05-07T05:31:28;4.40;;;4.07;;
77384;SDS011;66443;49.122;8.346;2023-05-07T05:33:53;4.00;;;3.70;;
77384;SDS011;66443;49.122;8.346;2023-05-07T05:36:19;3.83;;;3.43;;
77384;SDS011;66443;49.122;8.346;2023-05-07T05:38:44;3.20;;;3.00;;
77384;SDS011;66443;49.122;8.346;2023-05-07T05:41:09;4.40;;;2.97;;
77384;SDS011;66443;49.122;8.346;2023-05-07T05:43:34;2.83;;;2.53;;
77384;SDS011;66443;49.122;8.346;2023-05-07T05:46:00;3.57;;;3.27;;
77384;SDS011;66443;49.122;8.346;2023-05-07T05:48:25;2.73;;;2.53;;
77384;SDS011;66443;49.122;8.346;2023-05-07T05:50:50;3.50;;;3.00;;
77384;SDS011;66443;49.122;8.346;2023-05-07T05:53:15;4.67;;;2.97;;
77384;SDS011;66443;49.122;8.346;2023-05-07T05:55:44;2.97;;;2.77;;
77384;SDS011;66443;49.122;8.346;2023-05-07T05:58:09;3.07;;;2.73;;
77384;SDS011;66443;49.122;8.346;2023-05-07T06:00:34;6.13;;;3.23;;
77384;SDS011;66443;49.122;8.346;2023-05-07T06:02:59;3.40;;;2.50;;
77384;SDS011;66443;49.122;8.346;2023-05-07T06:05:25;2.77;;;2.40;;
77384;SDS011;66443;49.122;8.346;2023-05-07T06:07:50;2.80;;;2.60;;
77384;SDS011;66443;49.122;8.346;2023-05-07T06:10:15;3.33;;;3.10;;
77384;SDS011;66443;49.122;8.346;2023-05-07T06:12:40;2.80;;;2.57;;
77384;SDS011;66443;49.122;8.346;2023-05-07T06:15:06;2.93;;;2.73;;
77384;SDS011;66443;49.122;8.346;2023-05-07T06:17:31;2.90;;;2.70;;
77384;SDS011;66443;49.122;8.346;2023-05-07T06:19:56;3.13;;;2.93;;
77384;SDS011;66443;49.122;8.346;2023-05-07T06:22:21;2.83;;;2.63;;
77384;SDS011;66443;49.122;8.346;2023-05-07T06:24:47;3.77;;;2.70;;
77384;SDS011;66443;49.122;8.346;2023-05-07T06:27:12;2.77;;;2.57;;
77384;SDS011;66443;49.122;8.346;2023-05-07T06:29:37;2.83;;;2.63;;
77384;SDS011;66443;49.122;8.346;2023-05-07T06:32:09;2.93;;;2.73;;
77384;SDS011;66443;49.122;8.346;2023-05-07T06:34:34;2.70;;;2.50;;
77384;SDS011;66443;49.122;8.346;2023-05-07T06:36:59;3.40;;;3.10;;
77384;SDS011;66443;49.122;8.346;2023-05-07T06:39:24;2.87;;;2.77;;
77384;SDS011;66443;49.122;8.346;2023-05-07T06:41:50;2.90;;;2.70;;
77384;SDS011;66443;49.122;8.346;2023-05-07T06:44:15;3.10;;;2.90;;
77384;SDS011;66443;49.122;8.346;2023-05-07T06:46:40;3.17;;;2.80;;
77384;SDS011;66443;49.122;8.346;2023-05-07T06:49:05;3.23;;;3.03;;
77384;SDS011;66443;49.122;8.346;2023-05-07T06:51:31;3.23;;;2.80;;
77384;SDS011;66443;49.122;8.346;2023-05-07T06:53:56;3.53;;;2.53;;
77384;SDS011;66443;49.122;8.346;2023-05-07T06:56:21;4.00;;;2.67;;
77384;SDS011;66443;49.122;8.346;2023-05-07T06:58:47;3.23;;;3.00;;
77384;SDS011;66443;49.122;8.346;2023-05-07T07:01:12;3.03;;;2.83;;
77384;SDS011;66443;49.122;8.346;2023-05-07T07:03:38;2.87;;;2.57;;
77384;SDS011;66443;49.122;8.346;2023-05-07T07:06:03;3.03;;;2.67;;
77384;SDS011;66443;49.122;8.346;2023-05-07T07:08:29;4.10;;;2.53;;
77384;SDS011;66443;49.122;8.346;2023-05-07T07:10:55;2.87;;;2.67;;
77384;SDS011;66443;49.122;8.346;2023-05-07T07:13:20;2.90;;;2.70;;
77384;SDS011;66443;49.122;8.346;2023-05-07T07:15:45;2.33;;;2.23;;
77384;SDS011;66443;49.122;8.346;2023-05-07T07:18:10;2.60;;;2.50;;
77384;SDS011;66443;49.122;8.346;2023-05-07T07:20:36;2.20;;;2.10;;
77384;SDS011;66443;49.122;8.346;2023-05-07T07:23:01;2.70;;;2.50;;
77384;SDS011;66443;49.122;8.346;2023-05-07T07:25:26;4.00;;;2.73;;
77384;SDS011;66443;49.122;8.346;2023-05-07T07:27:51;2.63;;;2.43;;
77384;SDS011;66443;49.122;8.346;2023-05-07T07:30:16;2.20;;;2.10;;
77384;SDS011;66443;49.122;8.346;2023-05-07T07:32:41;2.10;;;2.00;;
77384;SDS011;66443;49.122;8.346;2023-05-07T07:35:07;2.90;;;2.70;;
77384;SDS011;66443;49.122;8.346;2023-05-07T07:37:33;2.60;;;2.40;;
77384;SDS011;66443;49.122;8.346;2023-05-07T07:39:58;2.63;;;2.43;;
77384;SDS011;66443;49.122;8.346;2023-05-07T07:42:23;2.70;;;2.33;;
77384;SDS011;66443;49.122;8.346;2023-05-07T07:44:48;2.27;;;2.10;;
77384;SDS011;66443;49.122;8.346;2023-05-07T07:47:13;3.27;;;2.33;;
77384;SDS011;66443;49.122;8.346;2023-05-07T07:49:39;4.40;;;2.83;;
77384;SDS011;66443;49.122;8.346;2023-05-07T07:52:04;2.37;;;2.17;;
77384;SDS011;66443;49.122;8.346;2023-05-07T07:54:29;2.73;;;2.43;;
77384;SDS011;66443;49.122;8.346;2023-05-07T07:56:55;2.27;;;2.17;;
77384;SDS011;66443;49.122;8.346;2023-05-07T07:59:20;2.37;;;2.27;;
77384;SDS011;66443;49.122;8.346;2023-05-07T08:01:45;2.60;;;2.37;;
77384;SDS011;66443;49.122;8.346;2023-05-07T08:04:13;2.13;;;2.03;;
77384;SDS011;66443;49.122;8.346;2023-05-07T08:06:38;2.50;;;2.40;;
77384;SDS011;66443;49.122;8.346;2023-05-07T08:09:03;2.53;;;2.43;;
77384;SDS011;66443;49.122;8.346;2023-05-07T08:11:28;3.17;;;2.47;;
77384;SDS011;66443;49.122;8.346;2023-05-07T08:13:54;2.80;;;2.60;;
77384;SDS011;66443;49.122;8.346;2023-05-07T08:16:19;2.77;;;2.50;;
77384;SDS011;66443;49.122;8.346;2023-05-07T08:18:44;2.30;;;2.20;;
77384;SDS011;66443;49.122;8.346;2023-05-07T08:21:09;2.20;;;2.10;;
77384;SDS011;66443;49.122;8.346;2023-05-07T08:23:34;2.53;;;2.30;;
77384;SDS011;66443;49.122;8.346;2023-05-07T08:26:00;2.00;;;1.90;;
77384;SDS011;66443;49.122;8.346;2023-05-07T08:28:25;2.70;;;2.50;;
77384;SDS011;66443;49.122;8.346;2023-05-07T08:30:50;2.80;;;2.40;;
77384;SDS011;66443;49.122;8.346;2023-05-07T08:33:16;2.47;;;2.27;;
77384;SDS011;66443;49.122;8.346;2023-05-07T08:35:41;2.50;;;2.40;;
77384;SDS011;66443;49.122;8.346;2023-05-07T08:38:06;2.80;;;2.60;;
77384;SDS011;66443;49.122;8.346;2023-05-07T08:40:33;3.37;;;2.23;;
77384;SDS011;66443;49.122;8.346;2023-05-07T08:42:59;2.30;;;2.20;;
77384;SDS011;66443;49.122;8.346;2023-05-07T08:45:25;3.90;;;2.43;;
77384;SDS011;66443;49.122;8.346;2023-05-07T08:47:51;2.63;;;2.42;;
77384;SDS011;66443;49.122;8.346;2023-05-07T08:50:17;2.97;;;2.77;;
77384;SDS011;66443;49.122;8.346;2023-05-07T08:52:43;2.85;;;2.65;;
77384;SDS011;66443;49.122;8.346;2023-05-07T08:55:08;2.58;;;2.40;;
77384;SDS011;66443;49.122;8.346;2023-05-07T08:57:33;3.30;;;2.58;;
77384;SDS011;66443;49.122;8.346;2023-05-07T08:59:59;6.30;;;2.45;;
77384;SDS011;66443;49.122;8.346;2023-05-07T09:02:24;2.78;;;2.42;;
77384;SDS011;66443;49.122;8.346;2023-05-07T09:04:50;4.97;;;2.38;;
77384;SDS011;66443;49.122;8.346;2023-05-07T09:07:15;2.60;;;1.85;;
77384;SDS011;66443;49.122;8.346;2023-05-07T09:09:41;3.33;;;2.20;;
77384;SDS011;66443;49.122;8.346;2023-05-07T09:12:06;2.40;;;2.30;;
77384;SDS011;66443;49.122;8.346;2023-05-07T09:14:31;2.55;;;2.35;;
77384;SDS011;66443;49.122;8.346;2023-05-07T09:16:56;2.90;;;2.67;;
77384;SDS011;66443;49.122;8.346;2023-05-07T09:19:24;2.53;;;2.33;;
77384;SDS011;66443;49.122;8.346;2023-05-07T09:21:57;3.08;;;2.30;;
77384;SDS011;66443;49.122;8.346;2023-05-07T09:24:22;2.50;;;2.17;;
77384;SDS011;66443;49.122;8.346;2023-05-07T09:26:47;2.72;;;2.22;;
77384;SDS011;66443;49.122;8.346;2023-05-07T09:29:13;2.00;;;1.90;;
77384;SDS011;66443;49.122;8.346;2023-05-07T09:31:40;2.50;;;2.30;;
77384;SDS011;66443;49.122;8.346;2023-05-07T09:34:05;2.92;;;2.72;;
77384;SDS011;66443;49.122;8.346;2023-05-07T09:36:31;2.58;;;2.38;;
77384;SDS011;66443;49.122;8.346;2023-05-07T09:38:58;3.25;;;2.63;;
77384;SDS011;66443;49.122;8.346;2023-05-07T09:41:24;2.80;;;2.60;;
77384;SDS011;66443;49.122;8.346;2023-05-07T09:43:53;2.50;;;2.30;;
77384;SDS011;66443;49.122;8.346;2023-05-07T09:46:18;2.83;;;2.35;;
77384;SDS011;66443;49.122;8.346;2023-05-07T09:48:49;2.67;;;2.47;;
77384;SDS011;66443;49.122;8.346;2023-05-07T09:53:43;3.28;;;2.97;;
77384;SDS011;66443;49.122;8.346;2023-05-07T09:56:08;2.80;;;2.35;;
77384;SDS011;66443;49.122;8.346;2023-05-07T09:58:33;3.00;;;2.80;;
77384;SDS011;66443;49.122;8.346;2023-05-07T10:01:01;2.67;;;2.58;;
77384;SDS011;66443;49.122;8.346;2023-05-07T10:03:27;2.55;;;2.35;;
77384;SDS011;66443;49.122;8.346;2023-05-07T10:05:53;2.50;;;2.30;;
77384;SDS011;66443;49.122;8.346;2023-05-07T10:08:19;3.10;;;2.28;;
77384;SDS011;66443;49.122;8.346;2023-05-07T10:10:44;3.15;;;2.28;;
77384;SDS011;66443;49.122;8.346;2023-05-07T10:13:10;2.50;;;2.30;;
77384;SDS011;66443;49.122;8.346;2023-05-07T10:15:36;2.72;;;2.53;;
77384;SDS011;66443;49.122;8.346;2023-05-07T10:18:01;2.58;;;2.38;;
77384;SDS011;66443;49.122;8.346;2023-05-07T10:20:27;3.55;;;2.22;;
77384;SDS011;66443;49.122;8.346;2023-05-07T10:22:53;2.30;;;2.20;;
77384;SDS011;66443;49.122;8.346;2023-05-07T10:25:26;2.85;;;2.45;;
77384;SDS011;66443;49.122;8.346;2023-05-07T10:27:53;2.55;;;2.35;;
77384;SDS011;66443;49.122;8.346;2023-05-07T10:30:37;2.47;;;2.33;;
77384;SDS011;66443;49.122;8.346;2023-05-07T10:33:05;2.67;;;2.50;;
77384;SDS011;66443;49.122;8.346;2023-05-07T10:35:32;2.80;;;2.60;;
77384;SDS011;66443;49.122;8.346;2023-05-07T10:38:01;2.80;;;2.60;;
77384;SDS011;66443;49.122;8.346;2023-05-07T10:40:26;2.72;;;2.53;;
77384;SDS011;66443;49.122;8.346;2023-05-07T10:43:01;2.70;;;2.50;;
77384;SDS011;66443;49.122;8.346;2023-05-07T10:45:27;2.70;;;2.30;;
77384;SDS011;66443;49.122;8.346;2023-05-07T10:48:09;2.85;;;2.65;;
77384;SDS011;66443;49.122;8.346;2023-05-07T10:50:35;2.30;;;2.10;;
77384;SDS011;66443;49.122;8.346;2023-05-07T10:55:44;2.85;;;2.03;;
77384;SDS011;66443;49.122;8.346;2023-05-07T11:00:47;2.13;;;1.73;;
77384;SDS011;66443;49.122;8.346;2023-05-07T11:03:13;2.42;;;2.17;;
77384;SDS011;66443;49.122;8.346;2023-05-07T11:05:39;1.73;;;1.63;;
77384;SDS011;66443;49.122;8.346;2023-05-07T11:08:05;2.40;;;1.77;;
77384;SDS011;66443;49.122;8.346;2023-05-07T11:13:14;2.33;;;2.22;;
77384;SDS011;66443;49.122;8.346;2023-05-07T11:15:40;2.58;;;2.38;;
77384;SDS011;66443;49.122;8.346;2023-05-07T11:18:06;2.05;;;1.90;;
77384;SDS011;66443;49.122;8.346;2023-05-07T11:20:51;2.53;;;2.33;;
77384;SDS011;66443;49.122;8.346;2023-05-07T11:26:00;4.93;;;2.30;;
77384;SDS011;66443;49.122;8.346;2023-05-07T11:28:27;2.30;;;2.20;;
77384;SDS011;66443;49.122;8.346;2023-05-07T11:30:52;3.03;;;2.78;;
77384;SDS011;66443;49.122;8.346;2023-05-07T11:33:18;2.28;;;2.08;;
77384;SDS011;66443;49.122;8.346;2023-05-07T11:35:43;2.10;;;1.80;;
77384;SDS011;66443;49.122;8.346;2023-05-07T11:38:08;2.30;;;2.20;;
77384;SDS011;66443;49.122;8.346;2023-05-07T11:40:34;4.28;;;2.40;;
77384;SDS011;66443;49.122;8.346;2023-05-07T11:42:59;2.20;;;2.10;;
77384;SDS011;66443;49.122;8.346;2023-05-07T11:45:35;2.40;;;2.20;;
77384;SDS011;66443;49.122;8.346;2023-05-07T11:48:01;2.78;;;2.10;;
77384;SDS011;66443;49.122;8.346;2023-05-07T11:50:26;3.35;;;1.77;;
77384;SDS011;66443;49.122;8.346;2023-05-07T11:52:51;2.53;;;1.80;;
77384;SDS011;66443;49.122;8.346;2023-05-07T11:55:18;2.30;;;2.20;;
77384;SDS011;66443;49.122;8.346;2023-05-07T11:57:43;2.25;;;2.15;;
77384;SDS011;66443;49.122;8.346;2023-05-07T12:00:09;2.15;;;1.90;;
77384;SDS011;66443;49.122;8.346;2023-05-07T12:02:34;4.63;;;2.30;;
77384;SDS011;66443;49.122;8.346;2023-05-07T12:05:00;2.33;;;2.13;;
77384;SDS011;66443;49.122;8.346;2023-05-07T12:07:25;2.35;;;2.15;;
77384;SDS011;66443;49.122;8.346;2023-05-07T12:09:50;1.70;;;1.60;;
77384;SDS011;66443;49.122;8.346;2023-05-07T12:12:16;2.08;;;1.98;;
77384;SDS011;66443;49.122;8.346;2023-05-07T12:14:43;2.00;;;1.90;;
77384;SDS011;66443;49.122;8.346;2023-05-07T12:17:08;3.03;;;2.20;;
77384;SDS011;66443;49.122;8.346;2023-05-07T12:19:34;1.98;;;1.88;;
77384;SDS011;66443;49.122;8.346;2023-05-07T12:22:00;1.88;;;1.77;;
77384;SDS011;66443;49.122;8.346;2023-05-07T12:24:26;2.15;;;2.05;;
77384;SDS011;66443;49.122;8.346;2023-05-07T12:26:51;1.90;;;1.80;;
77384;SDS011;66443;49.122;8.346;2023-05-07T12:29:16;1.80;;;1.70;;
77384;SDS011;66443;49.122;8.346;2023-05-07T12:31:42;1.70;;;1.60;;
77384;SDS011;66443;49.122;8.346;2023-05-07T12:34:07;3.50;;;1.85;;
77384;SDS011;66443;49.122;8.346;2023-05-07T12:36:38;2.70;;;1.90;;
77384;SDS011;66443;49.122;8.346;2023-05-07T12:39:05;2.65;;;2.00;;
77384;SDS011;66443;49.122;8.346;2023-05-07T12:41:30;2.08;;;1.85;;
77384;SDS011;66443;49.122;8.346;2023-05-07T12:44:00;2.65;;;1.85;;
77384;SDS011;66443;49.122;8.346;2023-05-07T12:46:25;1.90;;;1.80;;
77384;SDS011;66443;49.122;8.346;2023-05-07T12:48:51;3.03;;;2.72;;
77384;SDS011;66443;49.122;8.346;2023-05-07T12:51:17;2.22;;;2.13;;
77384;SDS011;66443;49.122;8.346;2023-05-07T12:53:43;2.10;;;2.00;;
77384;SDS011;66443;49.122;8.346;2023-05-07T12:56:08;2.13;;;2.00;;
77384;SDS011;66443;49.122;8.346;2023-05-07T12:58:34;2.58;;;2.40;;
77384;SDS011;66443;49.122;8.346;2023-05-07T13:01:01;2.20;;;2.00;;
77384;SDS011;66443;49.122;8.346;2023-05-07T13:03:31;2.70;;;2.50;;
77384;SDS011;66443;49.122;8.346;2023-05-07T13:06:00;2.50;;;2.30;;
77384;SDS011;66443;49.122;8.346;2023-05-07T13:10:50;2.50;;;2.30;;
77384;SDS011;66443;49.122;8.346;2023-05-07T13:13:16;2.45;;;2.25;;
77384;SDS011;66443;49.122;8.346;2023-05-07T13:15:41;3.20;;;2.57;;
77384;SDS011;66443;49.122;8.346;2023-05-07T13:18:06;2.80;;;2.60;;
77384;SDS011;66443;49.122;8.346;2023-05-07T13:20:31;4.53;;;2.60;;
77384;SDS011;66443;49.122;8.346;2023-05-07T13:22:56;2.70;;;2.50;;
77384;SDS011;66443;49.122;8.346;2023-05-07T13:25:21;2.70;;;2.50;;
77384;SDS011;66443;49.122;8.346;2023-05-07T13:27:47;2.53;;;2.20;;
77384;SDS011;66443;49.122;8.346;2023-05-07T13:30:12;3.03;;;2.80;;
77384;SDS011;66443;49.122;8.346;2023-05-07T13:32:37;2.65;;;2.45;;
77384;SDS011;66443;49.122;8.346;2023-05-07T13:35:02;2.58;;;2.20;;
77384;SDS011;66443;49.122;8.346;2023-05-07T13:37:28;2.92;;;2.00;;
77384;SDS011;66443;49.122;8.346;2023-05-07T13:39:53;3.25;;;1.95;;
77384;SDS011;66443;49.122;8.346;2023-05-07T13:42:18;2.15;;;1.95;;
77384;SDS011;66443;49.122;8.346;2023-05-07T13:44:43;2.00;;;1.90;;
77384;SDS011;66443;49.122;8.346;2023-05-07T13:47:08;4.53;;;2.37;;
77384;SDS011;66443;49.122;8.346;2023-05-07T13:49:34;2.55;;;2.35;;
77384;SDS011;66443;49.122;8.346;2023-05-07T13:51:59;2.50;;;2.35;;
77384;SDS011;66443;49.122;8.346;2023-05-07T13:54:24;3.05;;;2.80;;
77384;SDS011;66443;49.122;8.346;2023-05-07T13:56:49;6.72;;;5.57;;
77384;SDS011;66443;49.122;8.346;2023-05-07T13:59:15;4.78;;;4.35;;
77384;SDS011;66443;49.122;8.346;2023-05-07T14:01:40;5.43;;;5.10;;
77384;SDS011;66443;49.122;8.346;2023-05-07T14:04:05;5.28;;;4.05;;
77384;SDS011;66443;49.122;8.346;2023-05-07T14:06:30;4.65;;;4.22;;
77384;SDS011;66443;49.122;8.346;2023-05-07T14:08:56;4.88;;;4.40;;
77384;SDS011;66443;49.122;8.346;2023-05-07T14:11:22;4.07;;;3.60;;
77384;SDS011;66443;49.122;8.346;2023-05-07T14:13:48;3.80;;;3.50;;
77384;SDS011;66443;49.122;8.346;2023-05-07T14:16:13;8.33;;;3.63;;
77384;SDS011;66443;49.122;8.346;2023-05-07T14:18:38;4.30;;;3.90;;
77384;SDS011;66443;49.122;8.346;2023-05-07T14:21:04;3.47;;;3.17;;
77384;SDS011;66443;49.122;8.346;2023-05-07T14:23:31;3.95;;;3.17;;
77384;SDS011;66443;49.122;8.346;2023-05-07T14:25:56;3.00;;;2.67;;
77384;SDS011;66443;49.122;8.346;2023-05-07T14:28:22;2.20;;;2.10;;
77384;SDS011;66443;49.122;8.346;2023-05-07T14:30:47;2.72;;;2.47;;
77384;SDS011;66443;49.122;8.346;2023-05-07T14:33:12;2.58;;;2.38;;
77384;SDS011;66443;49.122;8.346;2023-05-07T14:35:38;2.28;;;2.17;;
77384;SDS011;66443;49.122;8.346;2023-05-07T14:38:03;3.70;;;2.47;;
77384;SDS011;66443;49.122;8.346;2023-05-07T14:40:28;3.08;;;1.75;;
77384;SDS011;66443;49.122;8.346;2023-05-07T14:42:53;3.28;;;1.20;;
77384;SDS011;66443;49.122;8.346;2023-05-07T14:45:18;2.38;;;1.05;;
77384;SDS011;66443;49.122;8.346;2023-05-07T14:47:44;2.97;;;1.08;;
77384;SDS011;66443;49.122;8.346;2023-05-07T14:50:09;3.30;;;1.00;;
77384;SDS011;66443;49.122;8.346;2023-05-07T14:52:34;1.48;;;1.23;;
77384;SDS011;66443;49.122;8.346;2023-05-07T14:54:59;3.22;;;1.92;;
77384;SDS011;66443;49.122;8.346;2023-05-07T14:57:25;3.80;;;1.65;;